x

Cape Cleare - 17 Nm South Of Montague Is, Ak (46076) Weather Station

2:50am - Sun 21st Sep 2014 All times are AKDT. -8 hours from GMT.

  • Wind
    9mph, 13mph gusts
  • Sea Temp 55°f
  • Air Temp 52°f
  • Sea Pressure 1004mb
  • Cape Cleare - 17 Nm South Of Montague Is,  Ak
  • Cape Cleare - 17 Nm South Of Montague Is,  Ak

More Historic Weather Station data

Upgrade to MSW Pro to gain access to the past 30 days of data for over 8000 Wavebouys and Weather Stations around the globe.

Join Pro

Comparision Forecast

View Surf forecast
   
Sun 09/21 2:50am  -   -   -  9 13 mph 1004mb 55f 52f
1:50am  -   -   -  11
mph
1004.3mb - 53f
12:50am 3.5ft 9s 6s 7 9 mph 1004.5mb 55f 53f
Sat 09/20 11:50pm 3.5ft 8s 6s 7 9 mph 1004.7mb 55f 53f
10:50pm  -   -   -  9
mph
1004.8mb 55f 53f
9:50pm 4ft 8s 6s 7 9 mph 1004.6mb 55f 53f
8:50pm 4ft 6s 6s 9
mph
1004.3mb 55f 53f
7:50pm 4.5ft 8s 6s 7 9 mph 1004.2mb 54f 53f
6:50pm  -   -   -  4 7 mph 1004.3mb 55f 53f
5:50pm  -   -   -  7 9 mph 1003.9mb 55f 53f
4:50pm  -   -   -  11 13 mph 1003.6mb 55f 52f
3:50pm  -   -   -  4
mph
1003.4mb 55f 55f
2:50pm  -   -   -  4
mph
1003.3mb 55f 54f
1:50pm  -   -   -  4 7 mph 1002.9mb 55f 54f
12:50pm  -   -   -  7 9 mph 1002.5mb 55f 53f
11:50am  -   -   -  7 9 mph 1002.3mb 55f 53f
10:50am  -   -   -   -  mph 1001.9mb 55f 53f
9:50am  -   -   -  2 4 mph 1001.6mb 55f 53f
8:50am  -   -   -  7 9 mph 1001.6mb 55f 52f
7:50am  -   -   -  16 18 mph 1001.1mb 55f 52f
6:50am  -   -   -  7
mph
1001mb 55f 54f
5:50am  -   -   -  7 9 mph 1000.9mb 55f 54f
4:50am  -   -   -  9 11 mph 1000.7mb 55f 54f
3:50am  -   -   -  7 9 mph 1000.7mb 55f 54f
2:50am  -   -   -  7 9 mph 1000.6mb 55f 54f
1:50am  -   -   -  9 11 mph 1000.5mb 54f 54f
12:50am  -   -   -  11 13 mph 1000.5mb 54f 54f
Fri 09/19 11:50pm 7ft 9s 6s 11 13 mph 1000.3mb 54f 54f
10:50pm  -   -   -  9 11 mph 1000.1mb 54f 54f
9:50pm 8ft 9s 6s 13 16 mph 999.3mb 54f 54f
8:50pm  -   -   -  16 18 mph 998.7mb 54f 54f
6:50pm  -   -   -  20 27 mph 996.1mb 54f 54f
5:50pm  -   -   -  22 29 mph 994.5mb 54f 54f
4:50pm 8ft 9s 6s 22 29 mph 993mb 54f 54f
3:50pm  -   -   -  22 27 mph 991.6mb 54f 53f
2:50pm  -   -   -  22
mph
- - 53f
1:50pm  -   -   -  22 29 mph 988.8mb 54f 53f
12:50pm 7ft 9s 6s 7 9 mph 988.1mb 54f 54f
11:50am  -   -   -  9 11 mph 987.3mb 54f 54f
10:50am 7.5ft 10s 7s 7 9 mph 986.6mb 54f 54f
9:50am 8ft 10s 7s 11 13 mph 985.8mb 54f 54f
8:50am  -   -   -  13 16 mph 984.8mb 54f 54f
7:50am  -   -   -  13 16 mph 983.8mb 54f 54f
6:50am  -   -   -  13 18 mph 983.2mb 54f 54f
5:50am  -   -   -  11 13 mph 982.7mb 54f 54f
3:50am  -   -   -  7 9 mph 981.7mb 55f 53f
2:50am  -   -   -  4 7 mph 981.3mb 55f 54f
1:50am  -   -   -  7 9 mph 980.8mb 55f 54f
12:50am  -   -   -  9 11 mph 980.3mb 55f 54f
Thu 09/18 11:50pm 9ft 8s 6s 9 11 mph 979.7mb 55f 54f
10:50pm  -   -   -  11 16 mph 979.1mb 55f 54f
9:50pm  -   -   -  13
mph
978.6mb 55f 54f
8:50pm  -   -   -  9 11 mph 978.2mb 54f 54f
7:50pm  -   -   -  13 16 mph 977.5mb 55f 55f
6:50pm 11.5ft 9s 7s 9 11 mph 976.9mb 54f 55f
5:50pm  -   -   -  9 11 mph 976mb 53f 55f
3:50pm  -   -   -  13 18 mph 975.5mb 54f 54f
1:50pm  -   -   -  20 25 mph 975.8mb 55f 55f
12:50pm  -   -   -  25 29 mph 976mb 55f 55f
11:50am  -   -   -  22 27 mph 976.3mb 55f 55f
10:50am  -   -   -  27
mph
976.7mb - 55f
8:50am  -   -   -  31 40 mph 977.3mb 56f 55f
6:50am  -   -   -  34
mph
- - 55f
5:50am  -   -   -  27 31 mph 979mb 57f 55f
4:50am 13.5ft 8s 7s 20 27 mph 980mb 56f 55f
3:50am  -   -   -  20
mph
- - -
1:50am  -   -   -  16
mph
- - 55f
12:50am  -   -   -  11 13 mph 983.8mb 56f 55f
Wed 09/17 9:50pm  -   -   -  2 4 mph 986.7mb 55f 53f
8:50pm  -   -   -   -  2 mph 987.5mb 55f 53f
7:50pm  -   -   -  2 4 mph 987.7mb 55f 53f
6:50pm  -   -   -  7
mph
987.6mb 55f 54f
5:50pm  -   -   -  9 11 mph 987.5mb 54f 54f
4:50pm  -   -   -  22 27 mph 987.5mb 54f 54f
3:50pm  -   -   -  29 36 mph 988.4mb 54f 54f
2:50pm  -   -   -  31 38 mph 989.7mb 54f 53f
1:50pm  -   -   -  31
mph
- - 53f
12:50pm  -   -   -  34 40 mph 991.7mb 54f 53f